Map

Track Data

SID SEASON NUMBER BASIN SUBBASIN NAME ISO_TIME NATURE LAT LON WMO_WIND WMO_PRES WMO_AGENCY TRACK_TYPE DIST2LAND LANDFALL IFLAG USA_AGENCY USA_ATCF_ID USA_LAT USA_LON USA_RECORD USA_STATUS USA_WIND USA_PRES USA_SSHS USA_R34_NE USA_R34_SE USA_R34_SW USA_R34_NW USA_R50_NE USA_R50_SE USA_R50_SW USA_R50_NW USA_R64_NE USA_R64_SE USA_R64_SW USA_R64_NW USA_POCI USA_ROCI USA_RMW USA_EYE TOKYO_LAT TOKYO_LON TOKYO_GRADE TOKYO_WIND TOKYO_PRES TOKYO_R50_DIR TOKYO_R50_LONG TOKYO_R50_SHORT TOKYO_R30_DIR TOKYO_R30_LONG TOKYO_R30_SHORT TOKYO_LAND CMA_LAT CMA_LON CMA_CAT CMA_WIND CMA_PRES HKO_LAT HKO_LON HKO_CAT HKO_WIND HKO_PRES NEWDELHI_LAT NEWDELHI_LON NEWDELHI_GRADE NEWDELHI_WIND NEWDELHI_PRES NEWDELHI_CI NEWDELHI_DP NEWDELHI_POCI REUNION_LAT REUNION_LON REUNION_TYPE REUNION_WIND REUNION_PRES REUNION_TNUM REUNION_CI REUNION_RMW REUNION_R34_NE REUNION_R34_SE REUNION_R34_SW REUNION_R34_NW REUNION_R50_NE REUNION_R50_SE REUNION_R50_SW REUNION_R50_NW REUNION_R64_NE REUNION_R64_SE REUNION_R64_SW REUNION_R64_NW BOM_LAT BOM_LON BOM_TYPE BOM_WIND BOM_PRES BOM_TNUM BOM_CI BOM_RMW BOM_R34_NE BOM_R34_SE BOM_R34_SW BOM_R34_NW BOM_R50_NE BOM_R50_SE BOM_R50_SW BOM_R50_NW BOM_R64_NE BOM_R64_SE BOM_R64_SW BOM_R64_NW BOM_ROCI BOM_POCI BOM_EYE BOM_POS_METHOD BOM_PRES_METHOD NADI_LAT NADI_LON NADI_CAT NADI_WIND NADI_PRES WELLINGTON_LAT WELLINGTON_LON WELLINGTON_WIND WELLINGTON_PRES DS824_LAT DS824_LON DS824_STAGE DS824_WIND DS824_PRES TD9636_LAT TD9636_LON TD9636_STAGE TD9636_WIND TD9636_PRES TD9635_LAT TD9635_LON TD9635_WIND TD9635_PRES TD9635_ROCI NEUMANN_LAT NEUMANN_LON NEUMANN_CLASS NEUMANN_WIND NEUMANN_PRES MLC_LAT MLC_LON MLC_CLASS MLC_WIND MLC_PRES USA_GUST BOM_GUST BOM_GUST_PER REUNION_GUST REUNION_GUST_PER USA_SEAHGT USA_SEARAD_NE USA_SEARAD_SE USA_SEARAD_SW USA_SEARAD_NW STORM_SPEED STORM_DIR
1893228N32300 1893 32 NA NA NOT_NAMED 1893-08-15 12:00:00 TS 32.2000 -60.4000 35 hurdat_atl main 1328 1265 O_____________ hurdat_atl AL051893 32.2000 -60.4000 TS 35 0 17 302
1893228N32300 1893 32 NA NA NOT_NAMED 1893-08-15 15:00:00 TS 32.6361 -61.2335 main 1265 1182 P_____________ AL051893 32.6361 -61.2335 TS 37 0 17 302
1893228N32300 1893 32 NA NA NOT_NAMED 1893-08-15 18:00:00 TS 33.1000 -62.1000 40 hurdat_atl main 1182 1090 O_____________ hurdat_atl AL051893 33.1000 -62.1000 TS 40 0 18 303
1893228N32300 1893 32 NA NA NOT_NAMED 1893-08-15 21:00:00 TS 33.6193 -63.0214 main 1090 990 P_____________ AL051893 33.6193 -63.0214 TS 42 0 19 305
1893228N32300 1893 32 NA NA NOT_NAMED 1893-08-16 00:00:00 TS 34.2000 -64.0000 45 hurdat_atl main 985 878 O_____________ hurdat_atl AL051893 34.2000 -64.0000 TS 45 0 21 305
1893228N32300 1893 32 NA NA NOT_NAMED 1893-08-16 03:00:00 TS 34.8213 -65.1239 main 878 768 P_____________ AL051893 34.8213 -65.1239 TS 50 0 22 307
1893228N32300 1893 32 NA NA NOT_NAMED 1893-08-16 06:00:00 TS 35.5000 -66.1000 55 hurdat_atl main 768 675 O_____________ hurdat_atl AL051893 35.5000 -66.1000 TS 55 0 20 317
1893228N32300 1893 32 NA NA NOT_NAMED 1893-08-16 09:00:00 TS 36.2411 -66.7739 main 671 582 P_____________ AL051893 36.2411 -66.7739 TS 57 0 17 334
1893228N32300 1893 32 NA NA NOT_NAMED 1893-08-16 12:00:00 TS 37.0000 -67.0000 60 hurdat_atl main 582 531 O_____________ hurdat_atl AL051893 37.0000 -67.0000 TS 60 0 14 2
1893228N32300 1893 32 NA NA NOT_NAMED 1893-08-16 15:00:00 TS 37.6772 -66.7235 main 526 494 P_____________ AL051893 37.6772 -66.7235 TS 65 1 16 27
1893228N32300 1893 32 NA NA NOT_NAMED 1893-08-16 18:00:00 TS 38.4000 -66.1000 70 hurdat_atl main 494 463 O_____________ hurdat_atl AL051893 38.4000 -66.1000 HU 70 1 19 31
1893228N32300 1893 32 NA NA NOT_NAMED 1893-08-16 21:00:00 TS 39.2768 -65.4812 main 463 380 P_____________ AL051893 39.2768 -65.4812 HU 75 1 21 31
1893228N32300 1893 32 NA NA NOT_NAMED 1893-08-17 00:00:00 TS 40.2000 -64.7000 80 hurdat_atl main 370 300 O_____________ hurdat_atl AL051893 40.2000 -64.7000 HU 80 1 22 37
1893228N32300 1893 32 NA NA NOT_NAMED 1893-08-17 03:00:00 TS 41.0729 -63.7373 main 297 266 P_____________ AL051893 41.0729 -63.7373 HU 82 1 23 42
1893228N32300 1893 32 NA NA NOT_NAMED 1893-08-17 06:00:00 TS 41.9000 -62.7000 85 hurdat_atl main 271 242 O_____________ hurdat_atl AL051893 41.9000 -62.7000 HU 85 2 22 43
1893228N32300 1893 32 NA NA NOT_NAMED 1893-08-17 09:00:00 TS 42.6713 -61.7469 main 239 194 P_____________ AL051893 42.6713 -61.7469 HU 85 2 20 43
1893228N32300 1893 32 NA NA NOT_NAMED 1893-08-17 12:00:00 TS 43.4000 -60.8000 85 hurdat_atl main 198 154 O_____________ hurdat_atl AL051893 43.4000 -60.8000 HU 85 2 20 44
1893228N32300 1893 32 NA NA NOT_NAMED 1893-08-17 15:00:00 TS 44.1143 -59.8054 main 159 145 P_____________ AL051893 44.1143 -59.8054 HU 85 2 20 46
1893228N32300 1893 32 NA NA NOT_NAMED 1893-08-17 18:00:00 TS 44.8000 -58.8000 85 hurdat_atl main 150 147 O_____________ hurdat_atl AL051893 44.8000 -58.8000 HU 85 2 20 46
1893228N32300 1893 32 NA NA NOT_NAMED 1893-08-17 21:00:00 TS 45.4639 -57.8050 main 172 120 P_____________ AL051893 45.4639 -57.8050 HU 85 2 19 47
1893228N32300 1893 32 NA NA NOT_NAMED 1893-08-18 00:00:00 TS 46.1000 -56.8000 85 hurdat_atl main 114 13 O_____________ hurdat_atl AL051893 46.1000 -56.8000 HU 85 2 19 49
1893228N32300 1893 32 NA NA NOT_NAMED 1893-08-18 03:00:00 TS 46.7140 -55.7627 main 13 0 P_____________ AL051893 46.7140 -55.7627 HU 82 1 19 50
1893228N32300 1893 32 NA NA NOT_NAMED 1893-08-18 06:00:00 TS 47.3000 -54.7000 80 hurdat_atl main 11 0 O_____________ hurdat_atl AL051893 47.3000 -54.7000 HU 80 1 18 51
1893228N32300 1893 32 NA NA NOT_NAMED 1893-08-18 09:00:00 TS 47.8553 -53.6484 main 13 0 P_____________ AL051893 47.8553 -53.6484 HU 75 1 18 53
1893228N32300 1893 32 NA NA NOT_NAMED 1893-08-18 12:00:00 TS 48.4000 -52.5000 70 hurdat_atl main 38 38 O_____________ hurdat_atl AL051893 48.4000 -52.5000 HU 70 1 20 57
1893228N32300 1893 32 NA NA NOT_NAMED 1893-08-18 15:00:00 TS 48.9586 -51.1077 main 149 149 P_____________ AL051893 48.9586 -51.1077 HU 67 1 21 59
1893228N32300 1893 32 NA NA NOT_NAMED 1893-08-18 18:00:00 TS 49.5000 -49.7000 65 hurdat_atl main 264 264 O_____________ hurdat_atl AL051893 49.5000 -49.7000 HU 65 1 19 58
1893228N32300 1893 32 NA NA NOT_NAMED 1893-08-18 21:00:00 TS 49.9887 -48.5507 main 358 358 P_____________ AL051893 49.9887 -48.5507 HU 65 1 18 56
1893228N32300 1893 32 NA NA NOT_NAMED 1893-08-19 00:00:00 TS 50.5000 -47.4000 65 hurdat_atl main 454 454 O_____________ hurdat_atl AL051893 50.5000 -47.4000 HU 65 1 19 56
1893228N32300 1893 32 NA NA NOT_NAMED 1893-08-19 03:00:00 TS 51.0831 -46.0337 main 567 567 P_____________ AL051893 51.0831 -46.0337 HU 65 1 22 57
1893228N32300 1893 32 NA NA NOT_NAMED 1893-08-19 06:00:00 TS 51.7000 -44.5000 65 hurdat_atl main 686 O_____________ hurdat_atl AL051893 51.7000 -44.5000 HU 65 1 23 57

About IBTrACS Database

This database is a web-friendly format of International Best Track Archive for Climate Stewardship (IBTrACS), a global best track data archive curated by NOAA dating back to 1842.

Updated: 2021-10-21